Aérodrome :
LOGIN :

S'inscrire | Disclaimer

   EN    FR    IT 

 










Légende :    VFR   VFR Marginal   IFR   IFR Intensif   IFR Très Intensif
Visi : 
Plafond : 
>= 8 km
>= 3000ft
5 à 8 km
1000 à 3000 ft
1500m à 5 km
500 à 1000 ft
800 à 1500m
200 à 500 ft
< 800m
< 200 ft
Symboles :   Orages  Brouillard  Fortes neiges  Fortes précipitations  Vent > 20 kt
SIGMETs :   Divers  Orages  Givrage  Turbulence  Onde Orograph.  Cendres Volcan.







- Altitude de l'aérodrome : 90 ft
- Code IATA : NTE
- Voir les cartes d'approche


LFRS - Nantes

DERNIER METAR :
  • 131630Z AUTO 26018G30KT 5000 -DZ BR OVC006 13/12 Q1002 TEMPO 2000 RA OVC004

METARs EXPIRÉS :
  • 131600Z AUTO 25016KT 5000 -DZ BR OVC007 13/12 Q1002 TEMPO 26020G35KT 2000 RA OVC004
  • 131530Z AUTO 24016G28KT 200V270 3800 -DZ BR OVC006 12/12 Q1002 TEMPO 2000 RA OVC004
  • 131500Z AUTO 23015KT 200V260 5000 -RA BR OVC006 12/11 Q1002 TEMPO 26020G35KT 2000 RA OVC004
  • 131430Z AUTO 21014KT 2900 -RA BR OVC005 11/10 Q1003 TEMPO 26020G35KT RA
  • 131400Z AUTO 21013KT 2700 -RA BR OVC005/// ///TCU 10/10 Q1004 TEMPO 26020G35KT 3000 RA BKN005 OVC015

TAF AMD TAF LFRS
Valide du 13 à 13h jusqu'au 14 à 18h UTC


131353Z 1313/1418 21015G25KT 9999 -RA BKN014 OVC040
TEMPO 1313/1319 26020G35KT 2000 RA OVC004
BECMG 1318/1320 27015G25KT NSW BKN015 BKN040
TEMPO 1323/1406 27020G33KT 3000 SHRA BKN010 SCT015TCU
TEMPO 1410/1418 26020G35KT SHRA BKN020TCU
PROB30
TEMPO 1413/1418 3000 TSRA SCT015CB
ATIS : +33 2 40 05 12 74
Pas de NOTAMs connus pour ce terrain.
2 SIGMETs publiés pour la FIR Brest (LFRR) :
 
Turbulence forte
LFRR SIGMET 2 VALID 131500/131900 LFPW
LFRR BREST FIR/UIR SEV TURB FCST WI N4800 W00800 - N4900 W00800 - N4930 W00530 - N4830 W00530 - N4800 W00800 SFC/FL060 MOV E 50KT NC=
Turbulence forte
LFRR SIGMET 1 VALID 131500/131900 LFPW
LFRR BREST FIR/UIR SEV TURB FCST WI N4400 W00400 - N4445 W00700 - N4815 W00430 - N4745 W00015 - N4630 W00015 - N4630 W00130 - N4445 W00145 - N4400 W00400 SFC/FL050 MOV E 40KT NC=



MET'MAP, la Météo Aéronautique d'un coup d'oeil ! - Copyright ORBIFLY Décembre 2007 - Disclaimer

ORBIFLY MET'MAP TEAM :

Programmation & Développement : Alexandra Zaïnal
Conception & Développement : Baudouin d'Aumeries
Co-Programmation & Développement : Marc-Olivier Méhu
Soutien technique & logistique : Manuel Goepfert

Contact : metmap@orbifly.com




SOURCES & CREDITS :

   NOAA